Time;durP1;ratioP1;P1;durP2;ratioP2;P2;SDS_P1;SDS_P2;PMS_P1;PMS_P2;Temp;Humidity;BMP_temperature;BMP_pressure;BME280_temperature;BME280_humidity;BME280_pressure;Samples;Min_cycle;Max_cycle;Signal;HPM_P1;HPM_P2
2022/07/11 00:01:02;;;;;;;1.17;0.70;;;;;;;;;;4999801;28;20223;-65
2022/07/11 00:03:28;;;;;;;1.20;0.80;;;;;;;;;;4998818;28;20231;-65
2022/07/11 00:05:55;;;;;;;2.80;0.87;;;;;;;;;;4985562;28;21053;-65
2022/07/11 00:08:22;;;;;;;2.40;0.90;;;;;;;;;;4999270;28;20235;-65
2022/07/11 00:10:48;;;;;;;2.30;1.00;;;;;;;;;;5001093;28;20330;-65
2022/07/11 00:13:15;;;;;;;2.20;1.30;;;;;;;;;;4984711;28;20268;-65
2022/07/11 00:15:42;;;;;;;3.13;1.00;;;;;;;;;;4973087;28;20323;-66
2022/07/11 00:18:09;;;;;;;2.80;1.03;;;;;;;;;;4989860;28;20231;-65
2022/07/11 00:20:35;;;;;;;2.37;0.90;;;;;;;;;;5000240;28;20233;-66
2022/07/11 00:23:02;;;;;;;1.30;0.80;;;;;;;;;;5001358;28;20233;-66
2022/07/11 00:25:29;;;;;;;2.20;1.00;;;;;;;;;;4999014;28;20235;-65
2022/07/11 00:27:56;;;;;;;2.70;1.00;;;;;;;;;;5000657;28;20306;-65
2022/07/11 00:30:22;;;;;;;3.37;0.83;;;;;;;;;;4977880;28;20232;-66
2022/07/11 00:32:49;;;;;;;4.30;0.90;;;;;;;;;;4993463;28;20830;-65
2022/07/11 00:35:16;;;;;;;3.73;1.10;;;;;;;;;;4999079;28;20294;-66
2022/07/11 00:37:43;;;;;;;3.07;0.90;;;;;;;;;;5000367;28;25703;-65
2022/07/11 00:40:10;;;;;;;3.53;0.90;;;;;;;;;;5000095;28;20227;-65
2022/07/11 00:42:37;;;;;;;0.87;0.70;;;;;;;;;;5001893;28;20229;-65
2022/07/11 00:45:04;;;;;;;2.60;0.90;;;;;;;;;;4992438;28;213812;-65
2022/07/11 00:47:31;;;;;;;3.33;0.80;;;;;;;;;;5000216;28;20289;-65
2022/07/11 00:49:57;;;;;;;2.30;0.90;;;;;;;;;;4993652;28;20227;-65
2022/07/11 00:52:24;;;;;;;2.37;0.90;;;;;;;;;;4980480;28;20242;-66
2022/07/11 00:54:51;;;;;;;2.60;1.00;;;;;;;;;;5000628;28;20234;-65
2022/07/11 00:57:18;;;;;;;2.03;0.80;;;;;;;;;;5000040;28;20649;-68
2022/07/11 00:59:45;;;;;;;2.70;1.10;;;;;;;;;;4984751;28;20231;-65
2022/07/11 01:02:12;;;;;;;1.87;0.97;;;;;;;;;;4983177;28;20231;-66
2022/07/11 01:04:39;;;;;;;5.23;0.83;;;;;;;;;;5000696;28;20230;-65
2022/07/11 01:07:06;;;;;;;1.33;0.90;;;;;;;;;;4998862;28;20234;-65
2022/07/11 01:09:33;;;;;;;3.23;0.90;;;;;;;;;;5001770;28;20286;-65
2022/07/11 01:12:00;;;;;;;2.20;1.07;;;;;;;;;;5000298;28;20239;-65
2022/07/11 01:14:26;;;;;;;1.23;0.70;;;;;;;;;;5001527;28;20231;-66
2022/07/11 01:16:53;;;;;;;3.10;0.90;;;;;;;;;;4992399;28;241643;-66
2022/07/11 01:19:20;;;;;;;2.33;1.17;;;;;;;;;;4988318;28;20377;-65
2022/07/11 01:21:49;;;;;;;1.50;0.90;;;;;;;;;;4993226;28;20709;-65
2022/07/11 01:24:15;;;;;;;1.97;1.00;;;;;;;;;;4998043;28;20964;-66
2022/07/11 01:26:49;;;;;;;1.33;0.80;;;;;;;;;;4994788;28;20238;-65
2022/07/11 01:29:16;;;;;;;3.80;1.20;;;;;;;;;;4984120;28;20702;-65
2022/07/11 01:31:42;;;;;;;2.57;0.80;;;;;;;;;;4996857;28;20690;-65
2022/07/11 01:34:09;;;;;;;1.50;0.90;;;;;;;;;;5001278;28;20592;-65
2022/07/11 01:36:36;;;;;;;2.63;1.00;;;;;;;;;;4974169;28;20255;-66
2022/07/11 01:39:03;;;;;;;1.53;1.20;;;;;;;;;;4994835;28;20313;-65
2022/07/11 01:41:30;;;;;;;1.90;1.00;;;;;;;;;;4994027;28;20254;-66
2022/07/11 01:43:56;;;;;;;2.10;0.90;;;;;;;;;;5001480;28;20324;-65
2022/07/11 01:46:23;;;;;;;4.13;0.83;;;;;;;;;;4989382;28;20627;-66
2022/07/11 01:48:50;;;;;;;2.83;0.73;;;;;;;;;;4993245;28;20302;-66
2022/07/11 01:51:17;;;;;;;3.40;1.10;;;;;;;;;;4996566;28;20231;-65
2022/07/11 01:53:44;;;;;;;5.23;0.80;;;;;;;;;;4983937;28;20314;-65
2022/07/11 01:56:29;;;;;;;3.40;0.80;;;;;;;;;;4997940;28;20226;-66
2022/07/11 01:58:58;;;;;;;1.93;0.90;;;;;;;;;;4999478;28;20226;-66
2022/07/11 02:01:26;;;;;;;4.00;1.00;;;;;;;;;;5001307;28;20734;-65
2022/07/11 02:03:55;;;;;;;3.20;1.00;;;;;;;;;;4993598;28;20229;-65
2022/07/11 02:06:21;;;;;;;3.63;1.37;;;;;;;;;;4997420;28;20342;-66
2022/07/11 02:08:48;;;;;;;2.13;0.90;;;;;;;;;;4987249;28;20250;-66
2022/07/11 02:11:15;;;;;;;2.73;0.87;;;;;;;;;;4999109;28;20338;-66
2022/07/11 02:13:43;;;;;;;5.10;1.43;;;;;;;;;;4999200;28;20242;-65
2022/07/11 02:16:11;;;;;;;1.97;1.10;;;;;;;;;;4997394;28;20223;-66
2022/07/11 02:18:37;;;;;;;3.27;1.03;;;;;;;;;;4999164;28;20227;-65
2022/07/11 02:21:04;;;;;;;5.80;1.07;;;;;;;;;;5000317;28;20249;-65
2022/07/11 02:23:31;;;;;;;1.23;0.80;;;;;;;;;;5003589;28;20318;-65
2022/07/11 02:25:58;;;;;;;2.03;0.83;;;;;;;;;;5002973;28;20690;-66
2022/07/11 02:28:25;;;;;;;2.13;0.70;;;;;;;;;;5004727;28;20241;-66
2022/07/11 02:30:52;;;;;;;2.73;0.97;;;;;;;;;;5000944;28;20234;-66
2022/07/11 02:33:18;;;;;;;4.43;0.90;;;;;;;;;;4988486;28;20231;-66
2022/07/11 02:35:48;;;;;;;2.23;0.80;;;;;;;;;;5000161;28;20233;-66
2022/07/11 02:38:15;;;;;;;6.07;0.83;;;;;;;;;;5002713;28;20231;-66
2022/07/11 02:40:42;;;;;;;2.47;0.73;;;;;;;;;;4999651;28;20239;-66
2022/07/11 02:43:09;;;;;;;4.07;0.93;;;;;;;;;;4991480;28;20219;-66
2022/07/11 02:45:36;;;;;;;2.23;0.70;;;;;;;;;;4998392;28;20234;-66
2022/07/11 02:48:03;;;;;;;2.40;0.70;;;;;;;;;;5001770;28;20237;-66
2022/07/11 02:50:31;;;;;;;2.73;1.10;;;;;;;;;;4985175;28;20245;-65
2022/07/11 02:52:57;;;;;;;4.57;1.20;;;;;;;;;;5000036;28;26273;-66
2022/07/11 02:55:24;;;;;;;3.47;0.90;;;;;;;;;;5001493;28;20266;-66
2022/07/11 02:57:51;;;;;;;1.17;1.07;;;;;;;;;;4987497;28;20258;-66
2022/07/11 03:00:18;;;;;;;3.97;1.00;;;;;;;;;;5000892;28;20353;-66
2022/07/11 03:02:45;;;;;;;4.07;1.30;;;;;;;;;;5000848;28;20305;-66
2022/07/11 03:05:12;;;;;;;2.30;0.80;;;;;;;;;;5000497;28;20303;-66
2022/07/11 03:07:39;;;;;;;1.47;1.13;;;;;;;;;;4982563;28;20781;-66
2022/07/11 03:10:06;;;;;;;3.00;1.20;;;;;;;;;;4983088;28;20306;-66
2022/07/11 03:12:33;;;;;;;2.23;1.10;;;;;;;;;;4995583;28;20235;-65
2022/07/11 03:15:00;;;;;;;3.23;1.20;;;;;;;;;;4999365;28;20232;-66
2022/07/11 03:17:26;;;;;;;2.37;1.20;;;;;;;;;;5000885;28;20224;-65
2022/07/11 03:19:53;;;;;;;3.97;1.50;;;;;;;;;;5002234;28;20215;-65
2022/07/11 03:22:21;;;;;;;1.67;1.10;;;;;;;;;;5000395;28;20235;-65
2022/07/11 03:24:47;;;;;;;4.43;1.50;;;;;;;;;;4985241;28;20301;-65
2022/07/11 03:27:14;;;;;;;3.20;1.40;;;;;;;;;;4998362;28;20218;-64
2022/07/11 03:29:41;;;;;;;1.97;1.00;;;;;;;;;;4998725;28;20317;-65
2022/07/11 03:32:08;;;;;;;2.03;1.20;;;;;;;;;;5003555;28;20219;-64
2022/07/11 03:34:35;;;;;;;5.33;1.10;;;;;;;;;;4999777;28;21021;-65
2022/07/11 03:37:02;;;;;;;3.43;0.93;;;;;;;;;;4988665;28;20230;-64
2022/07/11 03:39:29;;;;;;;3.43;1.07;;;;;;;;;;4997224;28;20298;-65
2022/07/11 03:41:56;;;;;;;2.67;1.30;;;;;;;;;;4997926;28;20586;-64
2022/07/11 03:44:23;;;;;;;4.70;1.63;;;;;;;;;;5001339;28;20757;-64
2022/07/11 03:46:50;;;;;;;2.07;1.20;;;;;;;;;;4999516;28;20239;-66
2022/07/11 03:49:17;;;;;;;3.57;1.40;;;;;;;;;;4999046;28;20586;-65
2022/07/11 03:51:44;;;;;;;3.57;1.30;;;;;;;;;;4999708;28;20229;-65
2022/07/11 03:54:11;;;;;;;2.00;0.60;;;;;;;;;;4999492;28;20606;-65
2022/07/11 03:56:37;;;;;;;1.40;0.60;;;;;;;;;;4999358;28;20234;-65
2022/07/11 03:59:04;;;;;;;0.93;0.60;;;;;;;;;;5001730;28;20308;-65
2022/07/11 04:01:31;;;;;;;1.93;0.50;;;;;;;;;;4984393;28;20231;-67
2022/07/11 04:03:58;;;;;;;0.43;0.30;;;;;;;;;;4992067;28;20595;-65
2022/07/11 04:06:25;;;;;;;2.40;0.60;;;;;;;;;;4970150;28;20269;-65
2022/07/11 04:08:52;;;;;;;1.57;0.60;;;;;;;;;;4960545;28;20822;-66
2022/07/11 04:11:19;;;;;;;2.23;0.83;;;;;;;;;;4989527;28;20235;-64
2022/07/11 04:13:46;;;;;;;1.00;0.47;;;;;;;;;;4999690;28;20235;-63
2022/07/11 04:16:13;;;;;;;1.77;0.70;;;;;;;;;;4987891;28;20227;-67
2022/07/11 04:18:40;;;;;;;1.57;0.70;;;;;;;;;;4992167;28;37183;-64
2022/07/11 04:21:08;;;;;;;1.30;0.67;;;;;;;;;;4998624;28;21267;-64
2022/07/11 04:23:38;;;;;;;0.80;0.70;;;;;;;;;;4984295;28;20226;-64
2022/07/11 04:26:05;;;;;;;0.73;0.60;;;;;;;;;;4998201;28;20587;-64
2022/07/11 04:28:32;;;;;;;1.80;0.70;;;;;;;;;;4987168;28;20281;-64
2022/07/11 04:30:59;;;;;;;1.93;0.60;;;;;;;;;;5000322;28;20307;-65
2022/07/11 04:33:25;;;;;;;1.60;0.70;;;;;;;;;;5001781;28;20310;-65
2022/07/11 04:35:52;;;;;;;1.30;0.80;;;;;;;;;;4999625;28;20293;-65
2022/07/11 04:38:21;;;;;;;3.70;1.87;;;;;;;;;;5000855;28;20223;-65
2022/07/11 04:40:48;;;;;;;2.33;0.77;;;;;;;;;;4997517;28;20354;-65
2022/07/11 04:43:15;;;;;;;2.30;1.50;;;;;;;;;;4995070;28;20285;-65
2022/07/11 04:45:42;;;;;;;1.50;0.87;;;;;;;;;;4998299;28;20227;-65
2022/07/11 04:48:09;;;;;;;2.70;1.23;;;;;;;;;;4983426;28;26990;-69
2022/07/11 04:50:37;;;;;;;3.50;1.53;;;;;;;;;;4970975;28;20594;-67
2022/07/11 04:53:04;;;;;;;2.00;1.00;;;;;;;;;;4984857;28;230091;-67
2022/07/11 04:55:31;;;;;;;1.43;0.90;;;;;;;;;;4965368;28;234631;-68
2022/07/11 04:57:58;;;;;;;1.80;1.07;;;;;;;;;;4990834;28;20278;-67
2022/07/11 05:00:25;;;;;;;4.50;2.50;;;;;;;;;;4984275;28;35178;-68
2022/07/11 05:02:52;;;;;;;3.33;1.90;;;;;;;;;;4991978;28;40159;-65
2022/07/11 05:05:19;;;;;;;1.33;1.20;;;;;;;;;;4987498;28;20326;-66
2022/07/11 05:07:46;;;;;;;1.50;0.90;;;;;;;;;;4974728;28;20680;-67
2022/07/11 05:10:13;;;;;;;1.10;0.80;;;;;;;;;;4990807;28;20227;-67
2022/07/11 05:12:40;;;;;;;1.70;0.70;;;;;;;;;;4990892;28;20231;-67
2022/07/11 05:15:08;;;;;;;2.40;0.80;;;;;;;;;;5001138;28;20702;-66
2022/07/11 05:17:35;;;;;;;1.80;0.53;;;;;;;;;;4999413;28;20230;-66
2022/07/11 05:20:02;;;;;;;0.50;0.50;;;;;;;;;;4984380;28;20238;-65
2022/07/11 05:22:29;;;;;;;1.80;0.70;;;;;;;;;;4983550;28;20548;-65
2022/07/11 05:24:55;;;;;;;0.70;0.40;;;;;;;;;;5001586;28;20323;-65
2022/07/11 05:27:22;;;;;;;0.90;0.70;;;;;;;;;;4998723;28;20227;-66
2022/07/11 05:29:49;;;;;;;0.83;0.60;;;;;;;;;;5001412;28;20219;-65
2022/07/11 05:32:16;;;;;;;0.80;0.53;;;;;;;;;;4999193;28;20243;-66
2022/07/11 05:34:42;;;;;;;1.70;0.40;;;;;;;;;;4999996;28;20239;-65
2022/07/11 05:37:09;;;;;;;0.60;0.40;;;;;;;;;;4999493;28;20227;-66
2022/07/11 05:39:36;;;;;;;1.77;0.47;;;;;;;;;;5001142;28;20239;-66
2022/07/11 05:42:03;;;;;;;1.23;0.30;;;;;;;;;;4983790;28;20317;-66
2022/07/11 05:44:30;;;;;;;1.23;0.87;;;;;;;;;;4990555;28;20886;-68
2022/07/11 05:47:00;;;;;;;1.77;0.90;;;;;;;;;;4971319;28;37206;-67
2022/07/11 05:49:27;;;;;;;1.20;0.70;;;;;;;;;;4989312;28;24921;-67
2022/07/11 05:51:54;;;;;;;0.77;0.30;;;;;;;;;;4998627;28;20693;-64
2022/07/11 05:54:21;;;;;;;1.00;0.53;;;;;;;;;;4994568;28;20243;-65
2022/07/11 05:56:48;;;;;;;1.10;0.70;;;;;;;;;;4985728;28;23588;-67
2022/07/11 05:59:15;;;;;;;0.60;0.50;;;;;;;;;;4985598;28;20243;-66
2022/07/11 06:01:41;;;;;;;0.87;0.60;;;;;;;;;;5004389;28;20239;-65
2022/07/11 06:04:08;;;;;;;2.83;1.23;;;;;;;;;;5003165;28;20769;-65
2022/07/11 06:06:35;;;;;;;1.20;0.60;;;;;;;;;;5004543;28;20286;-65
2022/07/11 06:09:02;;;;;;;1.13;0.70;;;;;;;;;;5002753;28;20322;-65
2022/07/11 06:11:29;;;;;;;2.77;0.87;;;;;;;;;;5004223;28;22820;-64
2022/07/11 06:13:56;;;;;;;1.07;0.70;;;;;;;;;;4980065;28;20312;-65
2022/07/11 06:16:26;;;;;;;1.40;0.70;;;;;;;;;;5000744;28;20229;-66
2022/07/11 06:18:53;;;;;;;0.80;0.70;;;;;;;;;;5004558;28;20246;-66
2022/07/11 06:21:21;;;;;;;1.30;0.60;;;;;;;;;;5002579;28;20231;-66
2022/07/11 06:23:48;;;;;;;1.03;0.60;;;;;;;;;;5004181;28;20757;-66
2022/07/11 06:26:15;;;;;;;1.10;0.60;;;;;;;;;;4984568;28;20219;-66
2022/07/11 06:28:42;;;;;;;1.13;0.87;;;;;;;;;;5003028;28;20676;-67
2022/07/11 06:31:09;;;;;;;0.97;0.77;;;;;;;;;;5002349;28;20227;-67
2022/07/11 06:33:36;;;;;;;1.33;0.80;;;;;;;;;;4986390;28;20241;-66
2022/07/11 06:36:03;;;;;;;1.63;0.90;;;;;;;;;;4970435;28;20746;-66
2022/07/11 06:38:29;;;;;;;1.83;0.73;;;;;;;;;;5004234;28;20683;-66
2022/07/11 06:40:56;;;;;;;1.67;0.60;;;;;;;;;;4988722;28;20339;-66
2022/07/11 06:43:23;;;;;;;1.73;0.87;;;;;;;;;;5002208;28;20353;-65
2022/07/11 06:45:50;;;;;;;1.17;0.70;;;;;;;;;;4986640;28;20253;-68
2022/07/11 06:48:17;;;;;;;1.07;0.70;;;;;;;;;;5000870;28;20314;-66
2022/07/11 06:50:44;;;;;;;2.13;1.30;;;;;;;;;;5003266;28;23055;-67
2022/07/11 06:53:11;;;;;;;3.10;0.60;;;;;;;;;;4983845;28;20321;-66
2022/07/11 06:55:37;;;;;;;2.30;1.60;;;;;;;;;;4987211;28;20311;-67
2022/07/11 06:58:05;;;;;;;2.47;0.53;;;;;;;;;;5001400;28;20296;-67
2022/07/11 07:00:52;;;;;;;0.40;0.37;;;;;;;;;;4973303;28;20709;-64
2022/07/11 07:03:20;;;;;;;1.13;0.60;;;;;;;;;;4986661;28;20243;-65
2022/07/11 07:05:49;;;;;;;1.70;0.90;;;;;;;;;;5002804;28;20281;-66
2022/07/11 07:08:16;;;;;;;1.20;0.60;;;;;;;;;;5001745;28;20239;-67
2022/07/11 07:10:43;;;;;;;0.80;0.50;;;;;;;;;;5002943;28;20369;-66
2022/07/11 07:13:09;;;;;;;0.60;0.60;;;;;;;;;;5001931;28;20724;-66
2022/07/11 07:15:36;;;;;;;2.53;0.67;;;;;;;;;;5003658;28;20251;-65
2022/07/11 07:18:21;;;;;;;1.23;0.50;;;;;;;;;;5001103;28;20219;-66
2022/07/11 07:20:50;;;;;;;0.50;0.40;;;;;;;;;;5003545;28;20639;-66
2022/07/11 07:23:35;;;;;;;0.60;0.60;;;;;;;;;;4977395;28;21114;-66
2022/07/11 07:26:02;;;;;;;1.50;0.50;;;;;;;;;;5003839;28;20362;-66
2022/07/11 07:28:46;;;;;;;0.50;0.50;;;;;;;;;;4995856;28;20258;-66
2022/07/11 07:31:13;;;;;;;1.80;0.70;;;;;;;;;;5002675;28;20293;-66
2022/07/11 07:33:42;;;;;;;4.03;1.97;;;;;;;;;;5001273;28;20231;-66
2022/07/11 07:36:11;;;;;;;1.93;1.30;;;;;;;;;;5001279;28;20231;-66
2022/07/11 07:38:39;;;;;;;1.80;1.10;;;;;;;;;;5002293;28;20332;-66
2022/07/11 07:41:06;;;;;;;0.90;0.80;;;;;;;;;;5001216;28;20710;-66
2022/07/11 07:43:33;;;;;;;0.50;0.50;;;;;;;;;;4985533;28;21708;-66
2022/07/11 07:46:00;;;;;;;0.93;0.57;;;;;;;;;;5000554;28;20227;-66
2022/07/11 07:48:26;;;;;;;1.33;1.07;;;;;;;;;;5003496;28;20744;-65
2022/07/11 07:51:11;;;;;;;1.53;1.20;;;;;;;;;;5000563;28;20246;-69
2022/07/11 07:53:38;;;;;;;0.80;0.80;;;;;;;;;;5001344;28;20235;-66
2022/07/11 07:56:05;;;;;;;1.80;0.63;;;;;;;;;;4985779;28;20314;-66
2022/07/11 07:58:32;;;;;;;1.90;0.60;;;;;;;;;;4999067;28;20322;-66
2022/07/11 08:03:44;;;;;;;1.33;0.90;;;;;;;;;;5001481;28;20235;-65
2022/07/11 08:06:11;;;;;;;1.67;0.93;;;;;;;;;;4997748;28;20237;-66
2022/07/11 08:08:56;;;;;;;1.13;0.60;;;;;;;;;;5002365;28;20259;-66
2022/07/11 08:11:23;;;;;;;0.67;0.50;;;;;;;;;;5000149;28;20587;-66
2022/07/11 08:14:07;;;;;;;1.17;0.67;;;;;;;;;;4987854;28;20223;-66
2022/07/11 08:16:34;;;;;;;0.50;0.40;;;;;;;;;;5000982;28;20297;-66
2022/07/11 08:19:03;;;;;;;1.10;0.57;;;;;;;;;;4999437;28;20259;-66
2022/07/11 08:21:31;;;;;;;1.07;0.53;;;;;;;;;;4998616;28;20232;-65
2022/07/11 08:23:58;;;;;;;0.63;0.50;;;;;;;;;;4990574;28;20234;-66
2022/07/11 08:26:25;;;;;;;0.60;0.53;;;;;;;;;;4995112;28;20228;-66
2022/07/11 08:28:59;;;;;;;1.47;0.60;;;;;;;;;;5000226;28;20238;-66
2022/07/11 08:31:26;;;;;;;0.93;0.53;;;;;;;;;;5000488;28;20379;-66
2022/07/11 08:33:53;;;;;;;0.73;0.40;;;;;;;;;;4995845;28;20227;-66
2022/07/11 08:36:20;;;;;;;2.27;0.60;;;;;;;;;;5000407;28;20642;-66
2022/07/11 08:38:47;;;;;;;1.20;0.70;;;;;;;;;;4998677;28;20690;-66
2022/07/11 08:41:14;;;;;;;1.03;0.70;;;;;;;;;;4999090;28;20235;-66
2022/07/11 08:43:41;;;;;;;3.03;0.93;;;;;;;;;;4996905;28;20227;-66
2022/07/11 08:46:08;;;;;;;1.63;0.80;;;;;;;;;;5001967;28;20219;-66
2022/07/11 08:48:35;;;;;;;1.07;0.63;;;;;;;;;;4999018;28;20227;-66
2022/07/11 08:51:02;;;;;;;12.90;6.60;;;;;;;;;;4992568;28;20239;-66
2022/07/11 08:53:29;;;;;;;5.10;1.87;;;;;;;;;;4983262;28;20237;-66
2022/07/11 08:55:56;;;;;;;2.37;0.50;;;;;;;;;;4984706;28;20640;-66
2022/07/11 08:58:24;;;;;;;1.13;0.50;;;;;;;;;;4998135;28;20245;-66
2022/07/11 09:00:51;;;;;;;0.53;0.40;;;;;;;;;;4998664;28;20235;-66
2022/07/11 09:03:17;;;;;;;1.30;0.70;;;;;;;;;;4982793;28;20333;-66
2022/07/11 09:05:44;;;;;;;3.27;1.53;;;;;;;;;;4984519;28;20231;-66
2022/07/11 09:08:11;;;;;;;1.63;0.77;;;;;;;;;;4979162;28;20227;-66
2022/07/11 09:10:39;;;;;;;1.90;0.43;;;;;;;;;;4989571;28;20223;-66
2022/07/11 09:13:14;;;;;;;0.50;0.30;;;;;;;;;;4994141;28;20738;-66
2022/07/11 09:15:44;;;;;;;1.30;0.50;;;;;;;;;;4975590;28;20245;-66
2022/07/11 09:18:30;;;;;;;2.87;0.70;;;;;;;;;;5001728;28;23642;-66
2022/07/11 09:26:32;;;;;;;2.63;0.80;;;;;;;;;;4983177;28;20231;-65
2022/07/11 09:29:03;;;;;;;1.07;0.43;;;;;;;;;;4995052;28;20255;-66
2022/07/11 09:31:31;;;;;;;1.13;0.50;;;;;;;;;;4997704;28;20231;-66
2022/07/11 09:33:58;;;;;;;0.87;0.50;;;;;;;;;;4997253;28;20235;-66
2022/07/11 09:36:38;;;;;;;1.47;0.60;;;;;;;;;;4999409;28;20239;-66
2022/07/11 09:39:05;;;;;;;0.40;0.30;;;;;;;;;;4971567;28;20269;-67
2022/07/11 09:41:33;;;;;;;0.60;0.30;;;;;;;;;;4984579;28;20356;-65
2022/07/11 09:44:07;;;;;;;1.10;0.40;;;;;;;;;;4999249;28;20725;-65
2022/07/11 09:46:35;;;;;;;1.33;0.40;;;;;;;;;;4984357;28;20234;-65
2022/07/11 09:49:04;;;;;;;2.77;1.37;;;;;;;;;;4999950;28;20239;-65
2022/07/11 09:51:32;;;;;;;2.33;1.23;;;;;;;;;;4981734;28;20308;-66
2022/07/11 09:53:58;;;;;;;1.00;0.50;;;;;;;;;;4999202;28;20251;-69
2022/07/11 09:56:31;;;;;;;2.93;0.90;;;;;;;;;;5001350;28;20249;-66
2022/07/11 09:59:18;;;;;;;2.37;0.40;;;;;;;;;;4997505;28;20230;-66
2022/07/11 10:01:45;;;;;;;1.03;0.53;;;;;;;;;;5000409;28;20304;-66
2022/07/11 10:04:11;;;;;;;0.90;0.40;;;;;;;;;;4998467;28;20265;-65
2022/07/11 10:06:44;;;;;;;1.00;0.43;;;;;;;;;;4986175;28;20301;-66
2022/07/11 10:09:10;;;;;;;0.90;0.40;;;;;;;;;;4999119;28;20301;-66
2022/07/11 10:11:37;;;;;;;1.00;0.80;;;;;;;;;;4983373;28;20239;-66
2022/07/11 10:14:22;;;;;;;0.93;0.60;;;;;;;;;;4984958;28;20223;-66
2022/07/11 10:16:53;;;;;;;0.60;0.50;;;;;;;;;;4983639;28;20635;-65
2022/07/11 10:19:40;;;;;;;2.50;0.57;;;;;;;;;;4959639;28;20315;-65
2022/07/11 10:22:25;;;;;;;0.77;0.50;;;;;;;;;;4984246;28;20239;-65
2022/07/11 10:24:53;;;;;;;2.23;1.10;;;;;;;;;;4999186;28;20234;-65
2022/07/11 10:27:21;;;;;;;2.10;0.70;;;;;;;;;;4981918;28;20309;-65
2022/07/11 10:30:05;;;;;;;3.43;0.70;;;;;;;;;;5001214;28;20595;-65
2022/07/11 10:32:33;;;;;;;0.63;0.37;;;;;;;;;;4999905;28;20702;-66
2022/07/11 10:35:17;;;;;;;0.57;0.37;;;;;;;;;;5000336;28;20958;-65
2022/07/11 10:37:48;;;;;;;1.30;0.47;;;;;;;;;;5005225;28;20249;-66
2022/07/11 10:40:17;;;;;;;1.37;0.40;;;;;;;;;;5003229;28;20314;-65
2022/07/11 10:42:44;;;;;;;1.93;0.90;;;;;;;;;;4985468;28;20315;-66
2022/07/11 10:45:11;;;;;;;1.40;0.70;;;;;;;;;;4987468;28;20259;-65
2022/07/11 10:47:55;;;;;;;1.90;0.60;;;;;;;;;;4986809;28;20219;-65
2022/07/11 10:50:38;;;;;;;1.07;0.67;;;;;;;;;;4993217;28;20223;-65
2022/07/11 10:53:09;;;;;;;2.00;0.60;;;;;;;;;;4987144;28;20231;-65
2022/07/11 10:56:03;;;;;;;1.43;0.60;;;;;;;;;;4998788;28;20610;-65
2022/07/11 10:59:38;;;;;;;1.33;0.50;;;;;;;;;;4934310;28;20227;-65
2022/07/11 11:02:59;;;;;;;1.63;0.50;;;;;;;;;;4923328;28;20585;-65
2022/07/11 11:05:44;;;;;;;1.07;0.47;;;;;;;;;;4921739;28;20226;-65
2022/07/11 11:08:30;;;;;;;0.77;0.40;;;;;;;;;;4923519;28;20252;-65
2022/07/11 11:10:57;;;;;;;1.43;0.50;;;;;;;;;;4923166;28;20747;-65
2022/07/11 11:13:46;;;;;;;0.30;0.30;;;;;;;;;;4922251;28;20285;-65
2022/07/11 11:16:45;;;;;;;1.43;0.30;;;;;;;;;;4907196;28;20558;-66
2022/07/11 11:19:38;;;;;;;1.27;0.37;;;;;;;;;;4921307;28;20233;-66
2022/07/11 11:22:12;;;;;;;1.13;0.47;;;;;;;;;;4922981;28;20229;-65
2022/07/11 11:24:41;;;;;;;1.70;0.50;;;;;;;;;;4922018;28;20249;-65
2022/07/11 11:27:33;;;;;;;0.40;0.33;;;;;;;;;;4953073;28;20243;-66
2022/07/11 11:30:31;;;;;;;1.43;0.40;;;;;;;;;;4959164;28;26736;-65
2022/07/11 11:33:20;;;;;;;2.20;0.40;;;;;;;;;;4957050;28;21426;-65
2022/07/11 11:36:04;;;;;;;2.00;0.30;;;;;;;;;;4948009;28;20224;-65
2022/07/11 11:38:49;;;;;;;3.53;0.60;;;;;;;;;;4940349;28;20244;-68
2022/07/11 11:41:23;;;;;;;0.93;0.40;;;;;;;;;;4960984;28;20240;-68
2022/07/11 11:43:50;;;;;;;1.03;0.40;;;;;;;;;;4956941;28;20304;-67
2022/07/11 11:46:17;;;;;;;1.73;0.50;;;;;;;;;;4975531;28;20236;-67
2022/07/11 11:48:47;;;;;;;0.60;0.47;;;;;;;;;;4955816;28;20240;-67
2022/07/11 11:51:15;;;;;;;0.43;0.30;;;;;;;;;;4959064;28;20434;-66
2022/07/11 11:54:06;;;;;;;1.53;0.40;;;;;;;;;;4970631;28;20224;-66
2022/07/11 11:57:18;;;;;;;2.10;0.30;;;;;;;;;;4975815;28;20295;-66
2022/07/11 12:00:30;;;;;;;1.23;0.40;;;;;;;;;;4968202;28;20233;-67
2022/07/11 12:03:49;;;;;;;0.53;0.23;;;;;;;;;;4985159;28;20254;-67
2022/07/11 12:06:17;;;;;;;2.80;0.50;;;;;;;;;;4992813;28;43421;-66
2022/07/11 12:08:44;;;;;;;1.27;0.30;;;;;;;;;;4992867;28;20227;-66
2022/07/11 12:11:14;;;;;;;2.40;0.20;;;;;;;;;;4991715;28;20219;-66
2022/07/11 12:13:41;;;;;;;0.50;0.43;;;;;;;;;;4978335;28;20228;-68
2022/07/11 12:19:00;;;;;;;0.60;0.20;;;;;;;;;;4991103;28;20246;-66
2022/07/11 12:21:41;;;;;;;0.97;0.30;;;;;;;;;;4995897;28;20230;-66
2022/07/11 12:24:59;;;;;;;0.20;0.20;;;;;;;;;;4985809;28;29662;-68
2022/07/11 12:27:25;;;;;;;2.73;0.33;;;;;;;;;;4983956;28;28361;-68
2022/07/11 12:29:54;;;;;;;2.93;0.30;;;;;;;;;;4969327;28;20252;-67
2022/07/11 12:33:07;;;;;;;2.23;0.40;;;;;;;;;;4979515;28;20568;-65
2022/07/11 12:35:34;;;;;;;0.50;0.30;;;;;;;;;;4977962;28;20232;-68
2022/07/11 12:38:01;;;;;;;1.17;0.40;;;;;;;;;;4995225;28;20231;-67
2022/07/11 12:40:28;;;;;;;1.53;0.40;;;;;;;;;;4993958;28;20235;-67
2022/07/11 12:42:55;;;;;;;1.40;0.30;;;;;;;;;;4994368;28;20430;-66
2022/07/11 12:45:22;;;;;;;1.33;0.60;;;;;;;;;;4964891;28;20231;-66
2022/07/11 12:47:49;;;;;;;0.20;0.20;;;;;;;;;;4992866;28;20238;-68
2022/07/11 12:50:21;;;;;;;0.97;0.50;;;;;;;;;;4993625;28;20322;-66
2022/07/11 12:52:57;;;;;;;2.10;0.40;;;;;;;;;;4973287;28;20238;-67
2022/07/11 12:55:28;;;;;;;0.53;0.30;;;;;;;;;;4991246;28;33746;-67
2022/07/11 12:58:06;;;;;;;1.37;0.60;;;;;;;;;;4991053;28;20269;-68
2022/07/11 13:00:37;;;;;;;1.60;0.40;;;;;;;;;;4992978;28;22699;-67
2022/07/11 13:03:04;;;;;;;0.70;0.40;;;;;;;;;;4979816;28;20425;-67
2022/07/11 13:05:51;;;;;;;0.30;0.30;;;;;;;;;;4991882;28;20249;-68
2022/07/11 13:08:42;;;;;;;0.63;0.40;;;;;;;;;;4994214;28;20930;-68
2022/07/11 13:11:17;;;;;;;1.50;0.30;;;;;;;;;;4976230;28;21269;-69
2022/07/11 13:13:44;;;;;;;1.03;0.40;;;;;;;;;;4991367;28;20302;-68
2022/07/11 13:16:11;;;;;;;2.13;0.37;;;;;;;;;;4994664;28;20258;-66
2022/07/11 13:18:37;;;;;;;0.37;0.20;;;;;;;;;;4991799;28;28176;-68
2022/07/11 13:21:07;;;;;;;0.20;0.20;;;;;;;;;;4975886;28;20598;-67
2022/07/11 13:23:34;;;;;;;0.50;0.30;;;;;;;;;;4985846;28;215190;-68
2022/07/11 13:26:01;;;;;;;0.50;0.30;;;;;;;;;;4993135;28;20231;-67
2022/07/11 13:28:28;;;;;;;0.90;0.43;;;;;;;;;;4985969;28;217823;-70
2022/07/11 13:30:55;;;;;;;0.97;0.40;;;;;;;;;;4963493;28;221485;-71
2022/07/11 13:33:41;;;;;;;0.57;0.40;;;;;;;;;;4993385;28;20227;-67
2022/07/11 13:36:25;;;;;;;2.07;0.43;;;;;;;;;;4987748;28;20230;-67
2022/07/11 13:38:52;;;;;;;0.87;0.30;;;;;;;;;;5001671;28;20318;-66
2022/07/11 13:41:36;;;;;;;0.37;0.20;;;;;;;;;;4999950;28;20219;-66
2022/07/11 13:44:03;;;;;;;1.63;0.30;;;;;;;;;;4999813;28;20238;-67
2022/07/11 13:46:30;;;;;;;2.13;0.40;;;;;;;;;;5001506;28;20223;-66
2022/07/11 13:48:57;;;;;;;0.67;0.20;;;;;;;;;;4999245;28;20316;-66
2022/07/11 13:51:24;;;;;;;0.60;0.40;;;;;;;;;;5001167;28;20388;-66
2022/07/11 13:53:50;;;;;;;1.87;0.50;;;;;;;;;;4999806;28;20328;-66
2022/07/11 13:56:17;;;;;;;0.70;0.30;;;;;;;;;;5000964;28;20242;-66
2022/07/11 13:58:44;;;;;;;2.20;0.50;;;;;;;;;;4981975;28;20238;-66
2022/07/11 14:01:11;;;;;;;2.37;0.33;;;;;;;;;;5000797;28;20306;-66
2022/07/11 14:03:39;;;;;;;0.70;0.70;;;;;;;;;;4997727;28;20249;-67
2022/07/11 14:06:07;;;;;;;0.70;0.50;;;;;;;;;;4983961;28;20243;-66
2022/07/11 14:08:33;;;;;;;1.07;0.27;;;;;;;;;;4998711;28;20230;-67
2022/07/11 14:11:00;;;;;;;0.80;0.37;;;;;;;;;;4998226;28;20232;-66
2022/07/11 14:13:27;;;;;;;1.43;0.30;;;;;;;;;;4987598;28;20245;-66
2022/07/11 14:15:55;;;;;;;2.10;0.40;;;;;;;;;;4984746;28;20351;-66
2022/07/11 14:18:25;;;;;;;0.30;0.20;;;;;;;;;;4982141;28;20282;-67
2022/07/11 14:20:55;;;;;;;1.30;0.50;;;;;;;;;;4996294;28;20234;-67
2022/07/11 14:23:24;;;;;;;1.33;0.50;;;;;;;;;;4999889;28;20289;-68
2022/07/11 14:25:52;;;;;;;0.67;0.40;;;;;;;;;;4993830;28;20223;-67
2022/07/11 14:28:20;;;;;;;1.83;0.50;;;;;;;;;;4970925;28;20259;-67
2022/07/11 14:30:51;;;;;;;0.93;0.40;;;;;;;;;;5004107;28;20739;-67
2022/07/11 14:33:19;;;;;;;3.60;0.30;;;;;;;;;;5007013;28;20220;-67
2022/07/11 14:35:46;;;;;;;0.77;0.40;;;;;;;;;;4983242;28;20250;-67
2022/07/11 14:38:13;;;;;;;0.57;0.40;;;;;;;;;;4998541;28;20239;-66
2022/07/11 14:40:40;;;;;;;0.97;0.30;;;;;;;;;;5000447;28;20263;-66
2022/07/11 14:43:07;;;;;;;0.90;0.50;;;;;;;;;;5001188;28;20223;-65
2022/07/11 14:45:34;;;;;;;0.80;0.40;;;;;;;;;;5002545;28;20235;-64
2022/07/11 14:48:01;;;;;;;1.07;0.40;;;;;;;;;;4987986;28;20249;-64
2022/07/11 14:50:28;;;;;;;0.47;0.30;;;;;;;;;;4994683;28;20228;-65
2022/07/11 14:52:56;;;;;;;0.87;0.37;;;;;;;;;;4998281;28;20234;-65
2022/07/11 14:55:23;;;;;;;1.83;0.37;;;;;;;;;;4991464;28;20330;-65
2022/07/11 14:58:07;;;;;;;1.37;0.30;;;;;;;;;;4999874;28;20227;-65
2022/07/11 15:00:34;;;;;;;0.40;0.30;;;;;;;;;;5004119;28;20261;-65
2022/07/11 15:06:07;;;;;;;0.83;0.40;;;;;;;;;;4985571;28;20234;-65
2022/07/11 15:14:22;;;;;;;2.20;0.40;;;;;;;;;;4993538;28;20254;-65
2022/07/11 15:16:49;;;;;;;1.53;0.50;;;;;;;;;;4981068;28;20334;-66
2022/07/11 15:19:16;;;;;;;2.27;0.60;;;;;;;;;;4994243;28;20234;-65
2022/07/11 15:21:43;;;;;;;2.20;0.77;;;;;;;;;;4985941;28;20238;-66